Terminal Aerodrome Forecast
Issued by NWS Charleston, SC

Current Version | Previous Version | Text Only | Print | Product List | Glossary On
Versions: 1 2 3 4 5 6 7 8 9 10 11 12
318
FTUS42 KCHS 291735
TAFSAV
TAF
KSAV 291735Z 2918/3018 28010KT P6SM SCT050
     FM292200 21009KT P6SM FEW070
     FM300400 25003KT P6SM SKC
     FM301500 27006KT P6SM FEW070=

USA.gov is the U.S. government's official web portal to all federal, state and local government web resources and services.